sensor_id;sensor_type;location;lat;lon;timestamp;P1;durP1;ratioP1;P2;durP2;ratioP2
47545;SDS011;50104;52.002;4.688;2022-10-16T00:02:17;2.35;;;1.35;;
47545;SDS011;50104;52.002;4.688;2022-10-16T00:07:18;1.45;;;1.15;;
47545;SDS011;50104;52.002;4.688;2022-10-16T00:12:19;4.63;;;1.60;;
47545;SDS011;50104;52.002;4.688;2022-10-16T00:17:21;3.55;;;1.48;;
47545;SDS011;50104;52.002;4.688;2022-10-16T00:22:22;2.00;;;1.17;;
47545;SDS011;50104;52.002;4.688;2022-10-16T00:27:23;4.32;;;1.85;;
47545;SDS011;50104;52.002;4.688;2022-10-16T00:32:23;6.05;;;1.58;;
47545;SDS011;50104;52.002;4.688;2022-10-16T00:37:24;2.45;;;1.10;;
47545;SDS011;50104;52.002;4.688;2022-10-16T00:42:25;1.98;;;1.23;;
47545;SDS011;50104;52.002;4.688;2022-10-16T00:52:41;3.80;;;2.03;;
47545;SDS011;50104;52.002;4.688;2022-10-16T00:57:47;4.13;;;1.47;;
47545;SDS011;50104;52.002;4.688;2022-10-16T01:08:09;3.85;;;1.65;;
47545;SDS011;50104;52.002;4.688;2022-10-16T01:13:19;3.53;;;2.40;;
47545;SDS011;50104;52.002;4.688;2022-10-16T01:18:30;2.45;;;1.58;;
47545;SDS011;50104;52.002;4.688;2022-10-16T01:23:44;2.22;;;1.48;;
47545;SDS011;50104;52.002;4.688;2022-10-16T01:29:37;1.90;;;1.67;;
47545;SDS011;50104;52.002;4.688;2022-10-16T01:40:58;1.60;;;1.50;;
47545;SDS011;50104;52.002;4.688;2022-10-16T01:46:09;3.22;;;1.52;;
47545;SDS011;50104;52.002;4.688;2022-10-16T01:51:13;2.03;;;1.17;;
47545;SDS011;50104;52.002;4.688;2022-10-16T01:56:15;1.48;;;1.35;;
47545;SDS011;50104;52.002;4.688;2022-10-16T02:01:19;3.13;;;1.67;;
47545;SDS011;50104;52.002;4.688;2022-10-16T02:06:22;3.42;;;2.03;;
47545;SDS011;50104;52.002;4.688;2022-10-16T02:11:23;2.22;;;1.73;;
47545;SDS011;50104;52.002;4.688;2022-10-16T02:16:37;2.85;;;1.88;;
47545;SDS011;50104;52.002;4.688;2022-10-16T02:21:47;2.67;;;1.80;;
47545;SDS011;50104;52.002;4.688;2022-10-16T02:26:52;2.22;;;1.70;;
47545;SDS011;50104;52.002;4.688;2022-10-16T02:32:03;2.10;;;1.80;;
47545;SDS011;50104;52.002;4.688;2022-10-16T02:37:06;2.38;;;1.85;;
47545;SDS011;50104;52.002;4.688;2022-10-16T02:42:14;1.88;;;1.63;;
47545;SDS011;50104;52.002;4.688;2022-10-16T02:52:16;1.77;;;1.60;;
47545;SDS011;50104;52.002;4.688;2022-10-16T02:57:16;1.90;;;1.70;;
47545;SDS011;50104;52.002;4.688;2022-10-16T03:02:18;2.97;;;1.63;;
47545;SDS011;50104;52.002;4.688;2022-10-16T03:07:18;4.25;;;1.38;;
47545;SDS011;50104;52.002;4.688;2022-10-16T03:12:19;3.08;;;2.15;;
47545;SDS011;50104;52.002;4.688;2022-10-16T03:17:21;2.25;;;1.50;;
47545;SDS011;50104;52.002;4.688;2022-10-16T03:22:21;2.60;;;1.80;;
47545;SDS011;50104;52.002;4.688;2022-10-16T03:27:22;2.80;;;1.70;;
47545;SDS011;50104;52.002;4.688;2022-10-16T03:32:23;1.90;;;1.45;;
47545;SDS011;50104;52.002;4.688;2022-10-16T03:37:25;2.75;;;1.63;;
47545;SDS011;50104;52.002;4.688;2022-10-16T03:42:26;5.78;;;1.45;;
47545;SDS011;50104;52.002;4.688;2022-10-16T03:47:27;2.88;;;1.80;;
47545;SDS011;50104;52.002;4.688;2022-10-16T03:52:28;5.88;;;1.80;;
47545;SDS011;50104;52.002;4.688;2022-10-16T03:57:29;3.30;;;1.80;;
47545;SDS011;50104;52.002;4.688;2022-10-16T04:02:30;3.65;;;1.55;;
47545;SDS011;50104;52.002;4.688;2022-10-16T04:07:30;4.80;;;1.70;;
47545;SDS011;50104;52.002;4.688;2022-10-16T04:12:31;3.72;;;1.42;;
47545;SDS011;50104;52.002;4.688;2022-10-16T04:17:32;2.45;;;1.45;;
47545;SDS011;50104;52.002;4.688;2022-10-16T04:22:33;3.53;;;1.48;;
47545;SDS011;50104;52.002;4.688;2022-10-16T04:27:34;3.55;;;1.52;;
47545;SDS011;50104;52.002;4.688;2022-10-16T04:32:34;1.80;;;1.45;;
47545;SDS011;50104;52.002;4.688;2022-10-16T04:37:35;1.95;;;1.50;;
47545;SDS011;50104;52.002;4.688;2022-10-16T04:42:36;2.63;;;2.38;;
47545;SDS011;50104;52.002;4.688;2022-10-16T04:47:37;3.72;;;1.92;;
47545;SDS011;50104;52.002;4.688;2022-10-16T04:52:37;4.13;;;1.45;;
47545;SDS011;50104;52.002;4.688;2022-10-16T04:57:38;2.08;;;1.60;;
47545;SDS011;50104;52.002;4.688;2022-10-16T05:02:41;3.17;;;1.90;;
47545;SDS011;50104;52.002;4.688;2022-10-16T05:07:42;2.20;;;1.50;;
47545;SDS011;50104;52.002;4.688;2022-10-16T05:12:42;3.47;;;2.30;;
47545;SDS011;50104;52.002;4.688;2022-10-16T05:17:43;3.88;;;1.70;;
47545;SDS011;50104;52.002;4.688;2022-10-16T05:22:44;6.25;;;1.88;;
47545;SDS011;50104;52.002;4.688;2022-10-16T05:27:48;2.70;;;1.85;;
47545;SDS011;50104;52.002;4.688;2022-10-16T05:32:50;3.85;;;1.85;;
47545;SDS011;50104;52.002;4.688;2022-10-16T05:37:54;3.58;;;1.80;;
47545;SDS011;50104;52.002;4.688;2022-10-16T05:42:55;4.90;;;1.73;;
47545;SDS011;50104;52.002;4.688;2022-10-16T05:47:56;5.80;;;1.90;;
47545;SDS011;50104;52.002;4.688;2022-10-16T05:52:57;3.38;;;1.70;;
47545;SDS011;50104;52.002;4.688;2022-10-16T05:57:57;3.20;;;1.60;;
47545;SDS011;50104;52.002;4.688;2022-10-16T06:02:58;6.03;;;2.13;;
47545;SDS011;50104;52.002;4.688;2022-10-16T06:07:59;4.70;;;1.77;;
47545;SDS011;50104;52.002;4.688;2022-10-16T06:13:00;2.40;;;1.50;;
47545;SDS011;50104;52.002;4.688;2022-10-16T06:18:00;2.00;;;1.55;;
47545;SDS011;50104;52.002;4.688;2022-10-16T06:23:01;3.58;;;1.60;;
47545;SDS011;50104;52.002;4.688;2022-10-16T06:28:04;2.30;;;1.17;;
47545;SDS011;50104;52.002;4.688;2022-10-16T06:33:05;4.20;;;1.13;;
47545;SDS011;50104;52.002;4.688;2022-10-16T06:38:06;4.38;;;1.20;;
47545;SDS011;50104;52.002;4.688;2022-10-16T06:43:07;6.68;;;0.98;;
47545;SDS011;50104;52.002;4.688;2022-10-16T06:48:08;5.47;;;0.90;;
47545;SDS011;50104;52.002;4.688;2022-10-16T06:53:08;1.35;;;0.70;;
47545;SDS011;50104;52.002;4.688;2022-10-16T06:58:09;3.65;;;1.30;;
47545;SDS011;50104;52.002;4.688;2022-10-16T07:03:10;2.40;;;1.30;;
47545;SDS011;50104;52.002;4.688;2022-10-16T07:08:11;1.60;;;0.93;;
47545;SDS011;50104;52.002;4.688;2022-10-16T07:13:12;1.50;;;1.02;;
47545;SDS011;50104;52.002;4.688;2022-10-16T07:18:14;5.35;;;1.88;;
47545;SDS011;50104;52.002;4.688;2022-10-16T07:23:14;2.33;;;1.48;;
47545;SDS011;50104;52.002;4.688;2022-10-16T07:28:15;4.93;;;1.33;;
47545;SDS011;50104;52.002;4.688;2022-10-16T07:33:16;2.70;;;1.60;;
47545;SDS011;50104;52.002;4.688;2022-10-16T07:38:23;5.00;;;1.90;;
47545;SDS011;50104;52.002;4.688;2022-10-16T07:43:25;3.95;;;1.90;;
47545;SDS011;50104;52.002;4.688;2022-10-16T07:48:27;4.40;;;1.58;;
47545;SDS011;50104;52.002;4.688;2022-10-16T07:53:31;3.55;;;1.75;;
47545;SDS011;50104;52.002;4.688;2022-10-16T07:58:33;3.33;;;1.60;;
47545;SDS011;50104;52.002;4.688;2022-10-16T08:03:37;5.50;;;1.70;;
47545;SDS011;50104;52.002;4.688;2022-10-16T08:08:38;4.00;;;1.42;;
47545;SDS011;50104;52.002;4.688;2022-10-16T08:13:39;5.75;;;1.50;;
47545;SDS011;50104;52.002;4.688;2022-10-16T08:18:40;4.95;;;1.42;;
47545;SDS011;50104;52.002;4.688;2022-10-16T08:23:41;4.22;;;1.27;;
47545;SDS011;50104;52.002;4.688;2022-10-16T08:28:43;3.70;;;1.08;;
47545;SDS011;50104;52.002;4.688;2022-10-16T08:33:44;5.10;;;1.10;;
47545;SDS011;50104;52.002;4.688;2022-10-16T08:38:47;4.57;;;1.50;;
47545;SDS011;50104;52.002;4.688;2022-10-16T08:44:15;6.38;;;1.35;;
47545;SDS011;50104;52.002;4.688;2022-10-16T08:49:31;6.82;;;1.60;;
47545;SDS011;50104;52.002;4.688;2022-10-16T08:54:36;5.45;;;1.58;;
47545;SDS011;50104;52.002;4.688;2022-10-16T08:59:42;5.93;;;1.30;;
47545;SDS011;50104;52.002;4.688;2022-10-16T09:04:54;5.03;;;1.83;;
47545;SDS011;50104;52.002;4.688;2022-10-16T09:15:31;9.80;;;1.83;;
47545;SDS011;50104;52.002;4.688;2022-10-16T09:20:42;8.95;;;2.20;;
47545;SDS011;50104;52.002;4.688;2022-10-16T09:25:47;3.80;;;2.00;;
47545;SDS011;50104;52.002;4.688;2022-10-16T09:30:50;6.70;;;1.60;;
47545;SDS011;50104;52.002;4.688;2022-10-16T09:35:51;7.63;;;1.55;;
47545;SDS011;50104;52.002;4.688;2022-10-16T09:40:55;8.68;;;1.92;;
47545;SDS011;50104;52.002;4.688;2022-10-16T09:46:03;6.32;;;1.80;;
47545;SDS011;50104;52.002;4.688;2022-10-16T09:51:23;5.80;;;1.10;;
47545;SDS011;50104;52.002;4.688;2022-10-16T09:56:36;9.80;;;1.85;;
47545;SDS011;50104;52.002;4.688;2022-10-16T10:01:40;5.70;;;1.83;;
47545;SDS011;50104;52.002;4.688;2022-10-16T10:06:54;3.42;;;1.45;;
47545;SDS011;50104;52.002;4.688;2022-10-16T10:11:57;7.20;;;1.57;;
47545;SDS011;50104;52.002;4.688;2022-10-16T10:22:25;8.98;;;1.45;;
47545;SDS011;50104;52.002;4.688;2022-10-16T10:27:36;7.00;;;2.05;;
47545;SDS011;50104;52.002;4.688;2022-10-16T10:49:43;6.35;;;1.25;;
47545;SDS011;50104;52.002;4.688;2022-10-16T11:06:17;8.98;;;1.55;;
47545;SDS011;50104;52.002;4.688;2022-10-16T11:11:32;6.47;;;1.10;;
47545;SDS011;50104;52.002;4.688;2022-10-16T11:16:39;6.30;;;0.98;;
47545;SDS011;50104;52.002;4.688;2022-10-16T11:26:51;5.80;;;1.33;;
47545;SDS011;50104;52.002;4.688;2022-10-16T11:31:55;4.35;;;1.17;;
47545;SDS011;50104;52.002;4.688;2022-10-16T11:37:21;11.20;;;1.85;;
47545;SDS011;50104;52.002;4.688;2022-10-16T11:42:29;4.32;;;1.10;;
47545;SDS011;50104;52.002;4.688;2022-10-16T11:47:40;5.82;;;1.00;;
47545;SDS011;50104;52.002;4.688;2022-10-16T11:58:35;11.80;;;1.85;;
47545;SDS011;50104;52.002;4.688;2022-10-16T12:09:00;8.23;;;1.33;;
47545;SDS011;50104;52.002;4.688;2022-10-16T12:19:13;4.28;;;0.95;;
47545;SDS011;50104;52.002;4.688;2022-10-16T12:24:20;5.95;;;1.60;;
47545;SDS011;50104;52.002;4.688;2022-10-16T12:29:37;5.32;;;0.98;;
47545;SDS011;50104;52.002;4.688;2022-10-16T12:34:45;7.88;;;1.23;;
47545;SDS011;50104;52.002;4.688;2022-10-16T12:39:48;10.25;;;1.73;;
47545;SDS011;50104;52.002;4.688;2022-10-16T12:44:49;5.28;;;1.15;;
47545;SDS011;50104;52.002;4.688;2022-10-16T12:49:52;9.00;;;1.40;;
47545;SDS011;50104;52.002;4.688;2022-10-16T12:54:57;9.70;;;1.15;;
47545;SDS011;50104;52.002;4.688;2022-10-16T13:21:49;5.40;;;0.73;;
47545;SDS011;50104;52.002;4.688;2022-10-16T13:32:50;9.48;;;1.95;;
47545;SDS011;50104;52.002;4.688;2022-10-16T13:43:14;9.20;;;1.73;;
47545;SDS011;50104;52.002;4.688;2022-10-16T13:48:17;5.75;;;1.25;;
47545;SDS011;50104;52.002;4.688;2022-10-16T13:53:18;8.95;;;1.20;;
47545;SDS011;50104;52.002;4.688;2022-10-16T13:58:19;9.30;;;1.30;;
47545;SDS011;50104;52.002;4.688;2022-10-16T14:03:23;5.90;;;1.83;;
47545;SDS011;50104;52.002;4.688;2022-10-16T14:08:25;6.90;;;1.35;;
47545;SDS011;50104;52.002;4.688;2022-10-16T14:13:34;5.85;;;1.48;;
47545;SDS011;50104;52.002;4.688;2022-10-16T14:18:38;7.75;;;1.45;;
47545;SDS011;50104;52.002;4.688;2022-10-16T14:23:41;6.68;;;1.17;;
47545;SDS011;50104;52.002;4.688;2022-10-16T14:28:43;9.00;;;1.48;;
47545;SDS011;50104;52.002;4.688;2022-10-16T14:33:45;10.20;;;2.25;;
47545;SDS011;50104;52.002;4.688;2022-10-16T14:38:53;10.02;;;1.73;;
47545;SDS011;50104;52.002;4.688;2022-10-16T14:44:00;7.90;;;1.77;;
47545;SDS011;50104;52.002;4.688;2022-10-16T14:54:20;6.93;;;1.33;;
47545;SDS011;50104;52.002;4.688;2022-10-16T14:59:24;5.28;;;1.48;;
47545;SDS011;50104;52.002;4.688;2022-10-16T15:04:34;8.27;;;1.48;;
47545;SDS011;50104;52.002;4.688;2022-10-16T15:09:34;8.40;;;1.48;;
47545;SDS011;50104;52.002;4.688;2022-10-16T15:14:35;5.88;;;1.20;;
47545;SDS011;50104;52.002;4.688;2022-10-16T15:19:37;8.52;;;1.73;;
47545;SDS011;50104;52.002;4.688;2022-10-16T15:24:38;9.55;;;2.20;;
47545;SDS011;50104;52.002;4.688;2022-10-16T15:29:39;6.20;;;1.42;;
47545;SDS011;50104;52.002;4.688;2022-10-16T15:34:40;5.55;;;1.30;;
47545;SDS011;50104;52.002;4.688;2022-10-16T15:39:42;6.45;;;1.63;;
47545;SDS011;50104;52.002;4.688;2022-10-16T15:44:43;5.65;;;2.22;;
47545;SDS011;50104;52.002;4.688;2022-10-16T15:49:43;7.60;;;1.55;;
47545;SDS011;50104;52.002;4.688;2022-10-16T15:54:47;6.85;;;1.95;;
47545;SDS011;50104;52.002;4.688;2022-10-16T15:59:47;8.15;;;1.42;;
47545;SDS011;50104;52.002;4.688;2022-10-16T16:04:48;8.05;;;1.63;;
47545;SDS011;50104;52.002;4.688;2022-10-16T16:09:49;7.13;;;1.48;;
47545;SDS011;50104;52.002;4.688;2022-10-16T16:14:50;7.72;;;1.83;;
47545;SDS011;50104;52.002;4.688;2022-10-16T16:19:51;9.07;;;1.75;;
47545;SDS011;50104;52.002;4.688;2022-10-16T16:24:52;11.68;;;2.03;;
47545;SDS011;50104;52.002;4.688;2022-10-16T16:29:52;7.93;;;1.98;;
47545;SDS011;50104;52.002;4.688;2022-10-16T16:34:55;5.85;;;1.50;;
47545;SDS011;50104;52.002;4.688;2022-10-16T16:39:56;8.13;;;1.88;;
47545;SDS011;50104;52.002;4.688;2022-10-16T16:44:58;11.38;;;2.15;;
47545;SDS011;50104;52.002;4.688;2022-10-16T16:49:59;6.10;;;1.70;;
47545;SDS011;50104;52.002;4.688;2022-10-16T16:55:04;6.07;;;2.20;;
47545;SDS011;50104;52.002;4.688;2022-10-16T17:00:06;10.57;;;2.58;;
47545;SDS011;50104;52.002;4.688;2022-10-16T17:05:08;6.43;;;2.80;;
47545;SDS011;50104;52.002;4.688;2022-10-16T17:10:09;11.75;;;2.70;;
47545;SDS011;50104;52.002;4.688;2022-10-16T17:15:10;8.70;;;2.92;;
47545;SDS011;50104;52.002;4.688;2022-10-16T17:20:11;11.00;;;3.15;;
47545;SDS011;50104;52.002;4.688;2022-10-16T17:25:12;7.78;;;2.50;;
47545;SDS011;50104;52.002;4.688;2022-10-16T17:30:13;10.77;;;3.28;;
47545;SDS011;50104;52.002;4.688;2022-10-16T17:35:13;12.05;;;2.67;;
47545;SDS011;50104;52.002;4.688;2022-10-16T17:40:16;12.02;;;3.00;;
47545;SDS011;50104;52.002;4.688;2022-10-16T17:45:17;11.13;;;2.70;;
47545;SDS011;50104;52.002;4.688;2022-10-16T17:50:18;12.27;;;2.83;;
47545;SDS011;50104;52.002;4.688;2022-10-16T17:55:19;12.05;;;2.88;;
47545;SDS011;50104;52.002;4.688;2022-10-16T18:00:20;5.13;;;2.50;;
47545;SDS011;50104;52.002;4.688;2022-10-16T18:05:21;7.15;;;2.22;;
47545;SDS011;50104;52.002;4.688;2022-10-16T18:10:22;10.15;;;3.15;;
47545;SDS011;50104;52.002;4.688;2022-10-16T18:15:22;11.55;;;3.13;;
47545;SDS011;50104;52.002;4.688;2022-10-16T18:20:23;11.25;;;2.67;;
47545;SDS011;50104;52.002;4.688;2022-10-16T18:25:24;13.85;;;3.10;;
47545;SDS011;50104;52.002;4.688;2022-10-16T18:30:25;12.20;;;3.55;;
47545;SDS011;50104;52.002;4.688;2022-10-16T18:35:26;9.15;;;2.50;;
47545;SDS011;50104;52.002;4.688;2022-10-16T18:40:27;10.10;;;3.20;;
47545;SDS011;50104;52.002;4.688;2022-10-16T18:45:29;12.02;;;3.20;;
47545;SDS011;50104;52.002;4.688;2022-10-16T18:50:30;12.52;;;3.90;;
47545;SDS011;50104;52.002;4.688;2022-10-16T18:55:30;10.40;;;3.50;;
47545;SDS011;50104;52.002;4.688;2022-10-16T19:00:32;8.98;;;3.40;;
47545;SDS011;50104;52.002;4.688;2022-10-16T19:05:33;14.38;;;3.92;;
47545;SDS011;50104;52.002;4.688;2022-10-16T19:10:35;12.38;;;3.38;;
47545;SDS011;50104;52.002;4.688;2022-10-16T19:15:39;7.18;;;3.53;;
47545;SDS011;50104;52.002;4.688;2022-10-16T19:20:42;10.52;;;4.70;;
47545;SDS011;50104;52.002;4.688;2022-10-16T19:25:42;9.23;;;3.13;;
47545;SDS011;50104;52.002;4.688;2022-10-16T19:30:43;10.18;;;3.85;;
47545;SDS011;50104;52.002;4.688;2022-10-16T19:35:45;6.97;;;3.30;;
47545;SDS011;50104;52.002;4.688;2022-10-16T19:40:46;9.43;;;3.63;;
47545;SDS011;50104;52.002;4.688;2022-10-16T19:45:47;9.07;;;4.07;;
47545;SDS011;50104;52.002;4.688;2022-10-16T19:50:48;13.70;;;4.10;;
47545;SDS011;50104;52.002;4.688;2022-10-16T19:55:48;8.02;;;3.88;;
47545;SDS011;50104;52.002;4.688;2022-10-16T20:00:49;11.10;;;3.90;;
47545;SDS011;50104;52.002;4.688;2022-10-16T20:05:55;8.50;;;3.78;;
47545;SDS011;50104;52.002;4.688;2022-10-16T20:10:56;7.85;;;4.00;;
47545;SDS011;50104;52.002;4.688;2022-10-16T20:15:57;9.45;;;4.60;;
47545;SDS011;50104;52.002;4.688;2022-10-16T20:20:58;12.35;;;6.55;;
47545;SDS011;50104;52.002;4.688;2022-10-16T20:25:59;9.90;;;4.72;;
47545;SDS011;50104;52.002;4.688;2022-10-16T20:31:04;9.05;;;5.72;;
47545;SDS011;50104;52.002;4.688;2022-10-16T20:36:22;8.00;;;5.25;;
47545;SDS011;50104;52.002;4.688;2022-10-16T20:41:25;9.90;;;5.55;;
47545;SDS011;50104;52.002;4.688;2022-10-16T20:46:26;9.55;;;6.15;;
47545;SDS011;50104;52.002;4.688;2022-10-16T20:51:29;5.78;;;4.97;;
47545;SDS011;50104;52.002;4.688;2022-10-16T20:56:32;7.18;;;5.43;;
47545;SDS011;50104;52.002;4.688;2022-10-16T21:01:36;10.57;;;5.40;;
47545;SDS011;50104;52.002;4.688;2022-10-16T21:06:37;12.52;;;5.65;;
47545;SDS011;50104;52.002;4.688;2022-10-16T21:11:39;8.23;;;5.35;;
47545;SDS011;50104;52.002;4.688;2022-10-16T21:16:39;6.35;;;4.95;;
47545;SDS011;50104;52.002;4.688;2022-10-16T21:21:40;7.55;;;4.85;;
47545;SDS011;50104;52.002;4.688;2022-10-16T21:26:41;8.43;;;3.95;;
47545;SDS011;50104;52.002;4.688;2022-10-16T21:31:42;6.00;;;4.10;;
47545;SDS011;50104;52.002;4.688;2022-10-16T21:36:43;8.82;;;3.95;;
47545;SDS011;50104;52.002;4.688;2022-10-16T21:41:44;6.53;;;3.78;;
47545;SDS011;50104;52.002;4.688;2022-10-16T21:46:48;6.75;;;3.83;;
47545;SDS011;50104;52.002;4.688;2022-10-16T21:51:49;5.50;;;3.38;;
47545;SDS011;50104;52.002;4.688;2022-10-16T21:56:50;3.83;;;3.42;;
47545;SDS011;50104;52.002;4.688;2022-10-16T22:01:52;4.65;;;3.30;;
47545;SDS011;50104;52.002;4.688;2022-10-16T22:06:53;4.43;;;2.88;;
47545;SDS011;50104;52.002;4.688;2022-10-16T22:11:53;6.05;;;3.15;;
47545;SDS011;50104;52.002;4.688;2022-10-16T22:16:54;3.28;;;2.97;;
47545;SDS011;50104;52.002;4.688;2022-10-16T22:21:55;6.18;;;3.30;;
47545;SDS011;50104;52.002;4.688;2022-10-16T22:26:56;5.38;;;4.00;;
47545;SDS011;50104;52.002;4.688;2022-10-16T22:31:57;3.35;;;3.03;;
47545;SDS011;50104;52.002;4.688;2022-10-16T22:36:57;5.38;;;3.35;;
47545;SDS011;50104;52.002;4.688;2022-10-16T22:41:58;4.50;;;4.10;;
47545;SDS011;50104;52.002;4.688;2022-10-16T22:47:08;6.88;;;4.00;;
47545;SDS011;50104;52.002;4.688;2022-10-16T22:52:09;10.02;;;3.88;;
47545;SDS011;50104;52.002;4.688;2022-10-16T22:57:10;6.07;;;4.20;;
47545;SDS011;50104;52.002;4.688;2022-10-16T23:02:10;7.05;;;4.32;;
47545;SDS011;50104;52.002;4.688;2022-10-16T23:07:11;4.60;;;4.20;;
47545;SDS011;50104;52.002;4.688;2022-10-16T23:12:12;6.88;;;4.43;;
47545;SDS011;50104;52.002;4.688;2022-10-16T23:17:13;6.22;;;4.35;;
47545;SDS011;50104;52.002;4.688;2022-10-16T23:22:14;5.45;;;4.40;;
47545;SDS011;50104;52.002;4.688;2022-10-16T23:27:14;6.75;;;4.63;;
47545;SDS011;50104;52.002;4.688;2022-10-16T23:32:15;6.07;;;4.70;;
47545;SDS011;50104;52.002;4.688;2022-10-16T23:37:16;7.45;;;5.30;;
47545;SDS011;50104;52.002;4.688;2022-10-16T23:42:18;5.32;;;4.82;;
47545;SDS011;50104;52.002;4.688;2022-10-16T23:47:19;6.22;;;5.10;;
47545;SDS011;50104;52.002;4.688;2022-10-16T23:52:20;6.85;;;5.43;;
47545;SDS011;50104;52.002;4.688;2022-10-16T23:57:21;6.70;;;5.20;;
